sensor_id;sensor_type;location;lat;lon;timestamp;P1;durP1;ratioP1;P2;durP2;ratioP2
66626;SDS011;53498;50.422;14.912;2022-11-11T00:00:50;36.47;;;19.33;;
66626;SDS011;53498;50.422;14.912;2022-11-11T00:03:22;30.77;;;19.00;;
66626;SDS011;53498;50.422;14.912;2022-11-11T00:05:48;29.35;;;18.58;;
66626;SDS011;53498;50.422;14.912;2022-11-11T00:08:13;28.35;;;18.30;;
66626;SDS011;53498;50.422;14.912;2022-11-11T00:10:39;24.48;;;16.10;;
66626;SDS011;53498;50.422;14.912;2022-11-11T00:13:05;30.83;;;18.48;;
66626;SDS011;53498;50.422;14.912;2022-11-11T00:15:30;26.17;;;16.10;;
66626;SDS011;53498;50.422;14.912;2022-11-11T00:17:58;24.52;;;14.63;;
66626;SDS011;53498;50.422;14.912;2022-11-11T00:20:43;18.38;;;12.10;;
66626;SDS011;53498;50.422;14.912;2022-11-11T00:23:27;21.83;;;14.10;;
66626;SDS011;53498;50.422;14.912;2022-11-11T00:26:14;19.00;;;12.85;;
66626;SDS011;53498;50.422;14.912;2022-11-11T00:28:40;22.48;;;14.00;;
66626;SDS011;53498;50.422;14.912;2022-11-11T00:31:09;26.08;;;16.45;;
66626;SDS011;53498;50.422;14.912;2022-11-11T00:33:37;26.27;;;14.13;;
66626;SDS011;53498;50.422;14.912;2022-11-11T00:36:03;24.77;;;15.38;;
66626;SDS011;53498;50.422;14.912;2022-11-11T00:38:29;24.52;;;15.30;;
66626;SDS011;53498;50.422;14.912;2022-11-11T00:41:11;27.10;;;15.50;;
66626;SDS011;53498;50.422;14.912;2022-11-11T00:43:41;29.42;;;15.70;;
66626;SDS011;53498;50.422;14.912;2022-11-11T00:46:08;25.60;;;14.68;;
66626;SDS011;53498;50.422;14.912;2022-11-11T00:48:53;24.30;;;15.88;;
66626;SDS011;53498;50.422;14.912;2022-11-11T00:51:38;24.65;;;14.45;;
66626;SDS011;53498;50.422;14.912;2022-11-11T00:54:06;23.95;;;14.88;;
66626;SDS011;53498;50.422;14.912;2022-11-11T00:56:35;22.98;;;15.13;;
66626;SDS011;53498;50.422;14.912;2022-11-11T00:59:05;25.45;;;17.52;;
66626;SDS011;53498;50.422;14.912;2022-11-11T01:01:33;21.75;;;13.95;;
66626;SDS011;53498;50.422;14.912;2022-11-11T01:03:59;24.55;;;14.20;;
66626;SDS011;53498;50.422;14.912;2022-11-11T01:06:25;26.50;;;14.85;;
66626;SDS011;53498;50.422;14.912;2022-11-11T01:08:51;23.50;;;13.68;;
66626;SDS011;53498;50.422;14.912;2022-11-11T01:11:18;21.17;;;13.25;;
66626;SDS011;53498;50.422;14.912;2022-11-11T01:13:46;22.02;;;14.13;;
66626;SDS011;53498;50.422;14.912;2022-11-11T01:16:22;18.60;;;12.52;;
66626;SDS011;53498;50.422;14.912;2022-11-11T01:18:50;22.15;;;13.95;;
66626;SDS011;53498;50.422;14.912;2022-11-11T01:21:17;17.35;;;12.35;;
66626;SDS011;53498;50.422;14.912;2022-11-11T01:23:45;18.20;;;10.88;;
66626;SDS011;53498;50.422;14.912;2022-11-11T01:28:41;18.98;;;10.98;;
66626;SDS011;53498;50.422;14.912;2022-11-11T01:31:09;20.33;;;11.40;;
66626;SDS011;53498;50.422;14.912;2022-11-11T01:33:36;18.38;;;11.63;;
66626;SDS011;53498;50.422;14.912;2022-11-11T01:36:03;16.60;;;10.73;;
66626;SDS011;53498;50.422;14.912;2022-11-11T01:38:30;16.70;;;10.38;;
66626;SDS011;53498;50.422;14.912;2022-11-11T01:40:55;20.15;;;12.18;;
66626;SDS011;53498;50.422;14.912;2022-11-11T01:43:22;15.88;;;10.23;;
66626;SDS011;53498;50.422;14.912;2022-11-11T01:48:28;18.13;;;12.10;;
66626;SDS011;53498;50.422;14.912;2022-11-11T01:51:29;26.00;;;13.43;;
66626;SDS011;53498;50.422;14.912;2022-11-11T01:54:03;20.25;;;11.32;;
66626;SDS011;53498;50.422;14.912;2022-11-11T01:59:04;16.25;;;9.88;;
66626;SDS011;53498;50.422;14.912;2022-11-11T02:01:41;19.05;;;11.05;;
66626;SDS011;53498;50.422;14.912;2022-11-11T02:04:07;16.02;;;9.60;;
66626;SDS011;53498;50.422;14.912;2022-11-11T02:06:53;16.75;;;10.88;;
66626;SDS011;53498;50.422;14.912;2022-11-11T02:09:21;17.15;;;10.88;;
66626;SDS011;53498;50.422;14.912;2022-11-11T02:11:52;17.42;;;11.50;;
66626;SDS011;53498;50.422;14.912;2022-11-11T02:14:46;17.35;;;11.80;;
66626;SDS011;53498;50.422;14.912;2022-11-11T02:17:15;17.65;;;12.18;;
66626;SDS011;53498;50.422;14.912;2022-11-11T02:19:53;20.25;;;12.10;;
66626;SDS011;53498;50.422;14.912;2022-11-11T02:25:12;16.77;;;10.57;;
66626;SDS011;53498;50.422;14.912;2022-11-11T02:27:42;17.13;;;11.10;;
66626;SDS011;53498;50.422;14.912;2022-11-11T02:30:10;22.85;;;13.35;;
66626;SDS011;53498;50.422;14.912;2022-11-11T02:32:44;20.92;;;12.48;;
66626;SDS011;53498;50.422;14.912;2022-11-11T02:35:11;20.15;;;12.15;;
66626;SDS011;53498;50.422;14.912;2022-11-11T02:37:40;17.58;;;11.05;;
66626;SDS011;53498;50.422;14.912;2022-11-11T02:40:08;17.77;;;10.98;;
66626;SDS011;53498;50.422;14.912;2022-11-11T02:42:37;17.58;;;10.90;;
66626;SDS011;53498;50.422;14.912;2022-11-11T02:45:03;21.00;;;11.38;;
66626;SDS011;53498;50.422;14.912;2022-11-11T02:47:28;20.02;;;11.15;;
66626;SDS011;53498;50.422;14.912;2022-11-11T02:49:54;15.30;;;9.88;;
66626;SDS011;53498;50.422;14.912;2022-11-11T02:52:19;16.13;;;10.77;;
66626;SDS011;53498;50.422;14.912;2022-11-11T02:54:45;17.77;;;10.82;;
66626;SDS011;53498;50.422;14.912;2022-11-11T02:57:11;18.85;;;11.32;;
66626;SDS011;53498;50.422;14.912;2022-11-11T02:59:38;16.10;;;9.93;;
66626;SDS011;53498;50.422;14.912;2022-11-11T03:02:05;17.42;;;11.23;;
66626;SDS011;53498;50.422;14.912;2022-11-11T03:04:32;15.20;;;9.50;;
66626;SDS011;53498;50.422;14.912;2022-11-11T03:06:58;17.27;;;10.80;;
66626;SDS011;53498;50.422;14.912;2022-11-11T03:09:23;19.42;;;11.30;;
66626;SDS011;53498;50.422;14.912;2022-11-11T03:11:49;19.20;;;11.13;;
66626;SDS011;53498;50.422;14.912;2022-11-11T03:14:14;16.95;;;11.07;;
66626;SDS011;53498;50.422;14.912;2022-11-11T03:16:40;19.98;;;12.07;;
66626;SDS011;53498;50.422;14.912;2022-11-11T03:19:27;17.77;;;11.30;;
66626;SDS011;53498;50.422;14.912;2022-11-11T03:21:53;21.40;;;11.35;;
66626;SDS011;53498;50.422;14.912;2022-11-11T03:24:20;20.33;;;12.60;;
66626;SDS011;53498;50.422;14.912;2022-11-11T03:26:46;24.08;;;13.13;;
66626;SDS011;53498;50.422;14.912;2022-11-11T03:29:12;19.52;;;11.38;;
66626;SDS011;53498;50.422;14.912;2022-11-11T03:31:37;16.83;;;12.35;;
66626;SDS011;53498;50.422;14.912;2022-11-11T03:34:03;19.30;;;11.70;;
66626;SDS011;53498;50.422;14.912;2022-11-11T03:36:44;23.75;;;13.80;;
66626;SDS011;53498;50.422;14.912;2022-11-11T03:39:45;26.00;;;13.55;;
66626;SDS011;53498;50.422;14.912;2022-11-11T03:42:10;19.48;;;11.63;;
66626;SDS011;53498;50.422;14.912;2022-11-11T03:44:36;22.38;;;12.80;;
66626;SDS011;53498;50.422;14.912;2022-11-11T03:47:01;18.20;;;11.10;;
66626;SDS011;53498;50.422;14.912;2022-11-11T03:49:27;18.13;;;12.13;;
66626;SDS011;53498;50.422;14.912;2022-11-11T03:51:52;21.13;;;12.05;;
66626;SDS011;53498;50.422;14.912;2022-11-11T03:54:18;19.45;;;11.40;;
66626;SDS011;53498;50.422;14.912;2022-11-11T03:56:44;18.33;;;11.75;;
66626;SDS011;53498;50.422;14.912;2022-11-11T03:59:09;18.25;;;11.23;;
66626;SDS011;53498;50.422;14.912;2022-11-11T04:01:35;19.30;;;12.18;;
66626;SDS011;53498;50.422;14.912;2022-11-11T04:04:18;18.88;;;12.10;;
66626;SDS011;53498;50.422;14.912;2022-11-11T04:07:02;19.75;;;11.50;;
66626;SDS011;53498;50.422;14.912;2022-11-11T04:09:49;20.95;;;11.82;;
66626;SDS011;53498;50.422;14.912;2022-11-11T04:12:34;22.20;;;11.70;;
66626;SDS011;53498;50.422;14.912;2022-11-11T04:15:23;26.70;;;13.60;;
66626;SDS011;53498;50.422;14.912;2022-11-11T04:18:07;27.17;;;14.10;;
66626;SDS011;53498;50.422;14.912;2022-11-11T04:20:33;19.58;;;12.30;;
66626;SDS011;53498;50.422;14.912;2022-11-11T04:23:20;23.63;;;13.82;;
66626;SDS011;53498;50.422;14.912;2022-11-11T04:25:46;20.65;;;13.10;;
66626;SDS011;53498;50.422;14.912;2022-11-11T04:28:14;21.75;;;12.13;;
66626;SDS011;53498;50.422;14.912;2022-11-11T04:31:03;18.58;;;11.30;;
66626;SDS011;53498;50.422;14.912;2022-11-11T04:33:40;27.92;;;15.10;;
66626;SDS011;53498;50.422;14.912;2022-11-11T04:36:06;17.42;;;11.55;;
66626;SDS011;53498;50.422;14.912;2022-11-11T04:38:31;21.33;;;11.85;;
66626;SDS011;53498;50.422;14.912;2022-11-11T04:41:15;18.33;;;11.03;;
66626;SDS011;53498;50.422;14.912;2022-11-11T04:43:41;24.15;;;12.02;;
66626;SDS011;53498;50.422;14.912;2022-11-11T04:46:25;24.15;;;10.48;;
66626;SDS011;53498;50.422;14.912;2022-11-11T04:48:51;15.93;;;10.63;;
66626;SDS011;53498;50.422;14.912;2022-11-11T04:51:16;24.60;;;10.57;;
66626;SDS011;53498;50.422;14.912;2022-11-11T04:53:41;19.35;;;10.50;;
66626;SDS011;53498;50.422;14.912;2022-11-11T04:56:07;21.52;;;10.85;;
66626;SDS011;53498;50.422;14.912;2022-11-11T04:58:51;16.98;;;8.52;;
66626;SDS011;53498;50.422;14.912;2022-11-11T05:01:37;24.08;;;10.82;;
66626;SDS011;53498;50.422;14.912;2022-11-11T05:04:24;29.40;;;12.27;;
66626;SDS011;53498;50.422;14.912;2022-11-11T05:06:50;22.90;;;10.57;;
66626;SDS011;53498;50.422;14.912;2022-11-11T05:09:33;32.95;;;13.32;;
66626;SDS011;53498;50.422;14.912;2022-11-11T05:11:59;26.90;;;11.68;;
66626;SDS011;53498;50.422;14.912;2022-11-11T05:14:24;22.38;;;11.68;;
66626;SDS011;53498;50.422;14.912;2022-11-11T05:17:09;21.83;;;10.82;;
66626;SDS011;53498;50.422;14.912;2022-11-11T05:19:53;34.95;;;14.07;;
66626;SDS011;53498;50.422;14.912;2022-11-11T05:22:38;26.55;;;10.57;;
66626;SDS011;53498;50.422;14.912;2022-11-11T05:25:05;34.90;;;11.70;;
66626;SDS011;53498;50.422;14.912;2022-11-11T05:27:49;21.63;;;11.00;;
66626;SDS011;53498;50.422;14.912;2022-11-11T05:30:18;16.02;;;10.18;;
66626;SDS011;53498;50.422;14.912;2022-11-11T05:32:45;24.90;;;10.80;;
66626;SDS011;53498;50.422;14.912;2022-11-11T05:35:11;29.50;;;11.25;;
66626;SDS011;53498;50.422;14.912;2022-11-11T05:37:37;31.23;;;10.93;;
66626;SDS011;53498;50.422;14.912;2022-11-11T05:40:03;26.25;;;12.23;;
66626;SDS011;53498;50.422;14.912;2022-11-11T05:42:30;24.17;;;11.20;;
66626;SDS011;53498;50.422;14.912;2022-11-11T05:44:55;21.13;;;10.73;;
66626;SDS011;53498;50.422;14.912;2022-11-11T05:47:21;24.73;;;11.38;;
66626;SDS011;53498;50.422;14.912;2022-11-11T05:49:46;25.35;;;11.48;;
66626;SDS011;53498;50.422;14.912;2022-11-11T05:52:12;34.28;;;12.35;;
66626;SDS011;53498;50.422;14.912;2022-11-11T05:54:40;20.25;;;11.38;;
66626;SDS011;53498;50.422;14.912;2022-11-11T05:57:06;22.60;;;11.77;;
66626;SDS011;53498;50.422;14.912;2022-11-11T05:59:33;17.80;;;10.52;;
66626;SDS011;53498;50.422;14.912;2022-11-11T06:01:59;24.02;;;10.85;;
66626;SDS011;53498;50.422;14.912;2022-11-11T06:04:24;21.77;;;12.45;;
66626;SDS011;53498;50.422;14.912;2022-11-11T06:06:53;21.98;;;11.00;;
66626;SDS011;53498;50.422;14.912;2022-11-11T06:09:19;32.88;;;12.50;;
66626;SDS011;53498;50.422;14.912;2022-11-11T06:11:45;19.17;;;11.63;;
66626;SDS011;53498;50.422;14.912;2022-11-11T06:14:10;21.83;;;11.77;;
66626;SDS011;53498;50.422;14.912;2022-11-11T06:16:36;22.52;;;11.07;;
66626;SDS011;53498;50.422;14.912;2022-11-11T06:19:01;22.75;;;11.43;;
66626;SDS011;53498;50.422;14.912;2022-11-11T06:21:28;21.48;;;11.55;;
66626;SDS011;53498;50.422;14.912;2022-11-11T06:23:55;21.35;;;11.25;;
66626;SDS011;53498;50.422;14.912;2022-11-11T06:26:21;18.05;;;11.38;;
66626;SDS011;53498;50.422;14.912;2022-11-11T06:28:47;22.55;;;11.13;;
66626;SDS011;53498;50.422;14.912;2022-11-11T06:31:14;21.70;;;10.70;;
66626;SDS011;53498;50.422;14.912;2022-11-11T06:33:42;15.35;;;10.35;;
66626;SDS011;53498;50.422;14.912;2022-11-11T06:36:09;24.42;;;11.70;;
66626;SDS011;53498;50.422;14.912;2022-11-11T06:38:36;19.65;;;10.65;;
66626;SDS011;53498;50.422;14.912;2022-11-11T06:41:02;22.95;;;12.88;;
66626;SDS011;53498;50.422;14.912;2022-11-11T06:43:27;19.40;;;10.43;;
66626;SDS011;53498;50.422;14.912;2022-11-11T06:45:53;20.65;;;11.18;;
66626;SDS011;53498;50.422;14.912;2022-11-11T06:48:20;23.45;;;11.70;;
66626;SDS011;53498;50.422;14.912;2022-11-11T06:50:46;20.77;;;11.40;;
66626;SDS011;53498;50.422;14.912;2022-11-11T06:53:13;22.98;;;12.25;;
66626;SDS011;53498;50.422;14.912;2022-11-11T06:55:43;25.48;;;11.40;;
66626;SDS011;53498;50.422;14.912;2022-11-11T06:58:13;25.35;;;12.55;;
66626;SDS011;53498;50.422;14.912;2022-11-11T07:00:40;28.83;;;12.52;;
66626;SDS011;53498;50.422;14.912;2022-11-11T07:03:08;24.42;;;11.48;;
66626;SDS011;53498;50.422;14.912;2022-11-11T07:05:36;30.23;;;13.02;;
66626;SDS011;53498;50.422;14.912;2022-11-11T07:08:02;24.80;;;11.40;;
66626;SDS011;53498;50.422;14.912;2022-11-11T07:10:29;26.77;;;11.93;;
66626;SDS011;53498;50.422;14.912;2022-11-11T07:12:56;22.23;;;11.48;;
66626;SDS011;53498;50.422;14.912;2022-11-11T07:15:22;27.17;;;12.55;;
66626;SDS011;53498;50.422;14.912;2022-11-11T07:17:48;23.23;;;12.18;;
66626;SDS011;53498;50.422;14.912;2022-11-11T07:20:13;33.38;;;13.30;;
66626;SDS011;53498;50.422;14.912;2022-11-11T07:22:39;24.17;;;12.20;;
66626;SDS011;53498;50.422;14.912;2022-11-11T07:25:05;24.75;;;12.30;;
66626;SDS011;53498;50.422;14.912;2022-11-11T07:27:37;26.42;;;11.80;;
66626;SDS011;53498;50.422;14.912;2022-11-11T07:30:04;23.25;;;12.35;;
66626;SDS011;53498;50.422;14.912;2022-11-11T07:32:31;20.42;;;11.00;;
66626;SDS011;53498;50.422;14.912;2022-11-11T07:34:57;24.75;;;13.05;;
66626;SDS011;53498;50.422;14.912;2022-11-11T07:37:23;29.52;;;12.32;;
66626;SDS011;53498;50.422;14.912;2022-11-11T07:39:49;25.13;;;12.55;;
66626;SDS011;53498;50.422;14.912;2022-11-11T07:42:14;23.35;;;13.93;;
66626;SDS011;53498;50.422;14.912;2022-11-11T07:44:40;24.95;;;13.18;;
66626;SDS011;53498;50.422;14.912;2022-11-11T07:47:05;28.35;;;13.23;;
66626;SDS011;53498;50.422;14.912;2022-11-11T07:49:31;28.80;;;13.43;;
66626;SDS011;53498;50.422;14.912;2022-11-11T07:51:56;18.70;;;11.57;;
66626;SDS011;53498;50.422;14.912;2022-11-11T07:54:22;24.95;;;13.35;;
66626;SDS011;53498;50.422;14.912;2022-11-11T07:56:48;21.00;;;12.75;;
66626;SDS011;53498;50.422;14.912;2022-11-11T07:59:13;25.70;;;12.68;;
66626;SDS011;53498;50.422;14.912;2022-11-11T08:01:39;19.85;;;11.48;;
66626;SDS011;53498;50.422;14.912;2022-11-11T08:04:05;25.50;;;12.43;;
66626;SDS011;53498;50.422;14.912;2022-11-11T08:06:30;26.65;;;11.70;;
66626;SDS011;53498;50.422;14.912;2022-11-11T08:08:56;23.15;;;14.05;;
66626;SDS011;53498;50.422;14.912;2022-11-11T08:11:21;27.95;;;12.40;;
66626;SDS011;53498;50.422;14.912;2022-11-11T08:14:06;23.63;;;12.73;;
66626;SDS011;53498;50.422;14.912;2022-11-11T08:16:31;26.48;;;12.75;;
66626;SDS011;53498;50.422;14.912;2022-11-11T08:18:57;33.88;;;14.98;;
66626;SDS011;53498;50.422;14.912;2022-11-11T08:21:23;20.85;;;12.88;;
66626;SDS011;53498;50.422;14.912;2022-11-11T08:23:49;26.70;;;12.90;;
66626;SDS011;53498;50.422;14.912;2022-11-11T08:26:16;24.33;;;12.05;;
66626;SDS011;53498;50.422;14.912;2022-11-11T08:28:42;30.20;;;13.65;;
66626;SDS011;53498;50.422;14.912;2022-11-11T08:31:08;20.17;;;12.10;;
66626;SDS011;53498;50.422;14.912;2022-11-11T08:33:34;26.77;;;11.73;;
66626;SDS011;53498;50.422;14.912;2022-11-11T08:36:00;26.52;;;12.18;;
66626;SDS011;53498;50.422;14.912;2022-11-11T08:38:27;20.83;;;11.48;;
66626;SDS011;53498;50.422;14.912;2022-11-11T08:40:52;31.25;;;12.30;;
66626;SDS011;53498;50.422;14.912;2022-11-11T08:43:18;27.25;;;12.57;;
66626;SDS011;53498;50.422;14.912;2022-11-11T08:45:44;24.50;;;12.35;;
66626;SDS011;53498;50.422;14.912;2022-11-11T08:48:10;26.60;;;11.80;;
66626;SDS011;53498;50.422;14.912;2022-11-11T08:50:37;26.40;;;13.50;;
66626;SDS011;53498;50.422;14.912;2022-11-11T08:53:07;27.10;;;13.02;;
66626;SDS011;53498;50.422;14.912;2022-11-11T08:55:33;24.08;;;12.70;;
66626;SDS011;53498;50.422;14.912;2022-11-11T08:58:00;32.25;;;15.13;;
66626;SDS011;53498;50.422;14.912;2022-11-11T09:00:27;38.95;;;14.10;;
66626;SDS011;53498;50.422;14.912;2022-11-11T09:02:53;27.17;;;12.80;;
66626;SDS011;53498;50.422;14.912;2022-11-11T09:05:24;26.40;;;12.45;;
66626;SDS011;53498;50.422;14.912;2022-11-11T09:07:49;24.48;;;13.85;;
66626;SDS011;53498;50.422;14.912;2022-11-11T09:10:15;26.98;;;13.60;;
66626;SDS011;53498;50.422;14.912;2022-11-11T09:12:40;28.63;;;14.10;;
66626;SDS011;53498;50.422;14.912;2022-11-11T09:15:06;31.30;;;13.05;;
66626;SDS011;53498;50.422;14.912;2022-11-11T09:17:32;25.73;;;14.02;;
66626;SDS011;53498;50.422;14.912;2022-11-11T09:20:01;27.52;;;13.70;;
66626;SDS011;53498;50.422;14.912;2022-11-11T09:22:28;32.65;;;15.90;;
66626;SDS011;53498;50.422;14.912;2022-11-11T09:24:53;28.27;;;13.88;;
66626;SDS011;53498;50.422;14.912;2022-11-11T09:27:20;28.63;;;13.73;;
66626;SDS011;53498;50.422;14.912;2022-11-11T09:29:46;23.70;;;12.65;;
66626;SDS011;53498;50.422;14.912;2022-11-11T09:32:12;24.73;;;13.70;;
66626;SDS011;53498;50.422;14.912;2022-11-11T09:34:37;22.30;;;12.45;;
66626;SDS011;53498;50.422;14.912;2022-11-11T09:37:03;27.90;;;14.27;;
66626;SDS011;53498;50.422;14.912;2022-11-11T09:39:28;25.27;;;13.70;;
66626;SDS011;53498;50.422;14.912;2022-11-11T09:42:00;32.65;;;16.45;;
66626;SDS011;53498;50.422;14.912;2022-11-11T09:44:36;25.27;;;13.20;;
66626;SDS011;53498;50.422;14.912;2022-11-11T09:50:36;27.55;;;14.25;;
66626;SDS011;53498;50.422;14.912;2022-11-11T09:53:18;30.27;;;15.15;;
66626;SDS011;53498;50.422;14.912;2022-11-11T09:55:44;25.35;;;14.13;;
66626;SDS011;53498;50.422;14.912;2022-11-11T09:58:21;29.67;;;13.52;;
66626;SDS011;53498;50.422;14.912;2022-11-11T10:00:54;21.88;;;12.40;;
66626;SDS011;53498;50.422;14.912;2022-11-11T10:03:24;28.90;;;14.05;;
66626;SDS011;53498;50.422;14.912;2022-11-11T10:05:55;21.08;;;12.10;;
66626;SDS011;53498;50.422;14.912;2022-11-11T10:08:26;24.27;;;13.43;;
66626;SDS011;53498;50.422;14.912;2022-11-11T10:10:54;27.27;;;14.85;;
66626;SDS011;53498;50.422;14.912;2022-11-11T10:13:27;22.60;;;13.68;;
66626;SDS011;53498;50.422;14.912;2022-11-11T10:16:08;32.83;;;13.65;;
66626;SDS011;53498;50.422;14.912;2022-11-11T10:19:05;23.58;;;12.57;;
66626;SDS011;53498;50.422;14.912;2022-11-11T10:21:36;19.52;;;11.52;;
66626;SDS011;53498;50.422;14.912;2022-11-11T10:24:17;24.10;;;12.68;;
66626;SDS011;53498;50.422;14.912;2022-11-11T10:27:03;25.65;;;12.43;;
66626;SDS011;53498;50.422;14.912;2022-11-11T10:29:39;26.65;;;13.77;;
66626;SDS011;53498;50.422;14.912;2022-11-11T10:34:59;23.63;;;13.45;;
66626;SDS011;53498;50.422;14.912;2022-11-11T10:37:40;25.33;;;13.27;;
66626;SDS011;53498;50.422;14.912;2022-11-11T10:42:54;26.52;;;14.60;;
66626;SDS011;53498;50.422;14.912;2022-11-11T10:45:24;23.52;;;13.18;;
66626;SDS011;53498;50.422;14.912;2022-11-11T10:50:40;25.77;;;13.20;;
66626;SDS011;53498;50.422;14.912;2022-11-11T10:55:52;22.63;;;12.63;;
66626;SDS011;53498;50.422;14.912;2022-11-11T10:58:28;27.65;;;14.90;;
66626;SDS011;53498;50.422;14.912;2022-11-11T11:00:59;24.83;;;13.13;;
66626;SDS011;53498;50.422;14.912;2022-11-11T11:03:29;28.65;;;14.73;;
66626;SDS011;53498;50.422;14.912;2022-11-11T11:06:41;25.40;;;13.63;;
66626;SDS011;53498;50.422;14.912;2022-11-11T11:09:11;23.27;;;13.32;;
66626;SDS011;53498;50.422;14.912;2022-11-11T11:11:57;28.52;;;14.15;;
66626;SDS011;53498;50.422;14.912;2022-11-11T11:16:57;24.50;;;12.77;;
66626;SDS011;53498;50.422;14.912;2022-11-11T11:19:32;28.05;;;14.45;;
66626;SDS011;53498;50.422;14.912;2022-11-11T11:22:00;21.45;;;13.02;;
66626;SDS011;53498;50.422;14.912;2022-11-11T11:24:27;25.45;;;14.32;;
66626;SDS011;53498;50.422;14.912;2022-11-11T11:27:03;26.52;;;14.43;;
66626;SDS011;53498;50.422;14.912;2022-11-11T11:34:45;31.58;;;14.75;;
66626;SDS011;53498;50.422;14.912;2022-11-11T11:37:13;24.17;;;14.05;;
66626;SDS011;53498;50.422;14.912;2022-11-11T11:39:39;29.65;;;15.38;;
66626;SDS011;53498;50.422;14.912;2022-11-11T11:42:05;27.48;;;14.88;;
66626;SDS011;53498;50.422;14.912;2022-11-11T11:44:37;22.80;;;13.55;;
66626;SDS011;53498;50.422;14.912;2022-11-11T11:55:29;29.63;;;15.23;;
66626;SDS011;53498;50.422;14.912;2022-11-11T11:58:02;30.27;;;15.48;;
66626;SDS011;53498;50.422;14.912;2022-11-11T12:00:37;23.98;;;14.68;;
66626;SDS011;53498;50.422;14.912;2022-11-11T12:06:33;29.60;;;16.98;;
66626;SDS011;53498;50.422;14.912;2022-11-11T12:09:05;25.83;;;14.90;;
66626;SDS011;53498;50.422;14.912;2022-11-11T12:22:51;29.83;;;15.35;;
66626;SDS011;53498;50.422;14.912;2022-11-11T12:30:39;34.30;;;18.55;;
66626;SDS011;53498;50.422;14.912;2022-11-11T12:33:25;30.73;;;17.60;;
66626;SDS011;53498;50.422;14.912;2022-11-11T12:36:10;36.00;;;18.50;;
66626;SDS011;53498;50.422;14.912;2022-11-11T12:45:01;39.05;;;19.17;;
66626;SDS011;53498;50.422;14.912;2022-11-11T12:50:29;41.20;;;21.15;;
66626;SDS011;53498;50.422;14.912;2022-11-11T13:10:16;35.22;;;19.38;;
66626;SDS011;53498;50.422;14.912;2022-11-11T13:15:37;32.63;;;17.75;;
66626;SDS011;53498;50.422;14.912;2022-11-11T13:18:07;35.30;;;17.92;;
66626;SDS011;53498;50.422;14.912;2022-11-11T13:23:22;33.30;;;18.10;;
66626;SDS011;53498;50.422;14.912;2022-11-11T13:25:50;33.63;;;18.98;;
66626;SDS011;53498;50.422;14.912;2022-11-11T13:28:36;36.45;;;20.25;;
66626;SDS011;53498;50.422;14.912;2022-11-11T13:31:08;29.80;;;16.27;;
66626;SDS011;53498;50.422;14.912;2022-11-11T13:33:48;30.98;;;16.75;;
66626;SDS011;53498;50.422;14.912;2022-11-11T13:36:22;38.05;;;19.30;;
66626;SDS011;53498;50.422;14.912;2022-11-11T13:38:54;41.35;;;23.60;;
66626;SDS011;53498;50.422;14.912;2022-11-11T13:41:27;47.75;;;25.52;;
66626;SDS011;53498;50.422;14.912;2022-11-11T13:43:59;32.17;;;17.35;;
66626;SDS011;53498;50.422;14.912;2022-11-11T13:49:07;37.78;;;17.63;;
66626;SDS011;53498;50.422;14.912;2022-11-11T13:51:45;31.58;;;18.90;;
66626;SDS011;53498;50.422;14.912;2022-11-11T13:54:35;31.50;;;18.85;;
66626;SDS011;53498;50.422;14.912;2022-11-11T13:57:21;30.98;;;19.40;;
66626;SDS011;53498;50.422;14.912;2022-11-11T14:00:22;30.35;;;18.38;;
66626;SDS011;53498;50.422;14.912;2022-11-11T14:05:46;33.78;;;18.25;;
66626;SDS011;53498;50.422;14.912;2022-11-11T14:13:53;25.83;;;15.93;;
66626;SDS011;53498;50.422;14.912;2022-11-11T14:24:25;34.15;;;17.77;;
66626;SDS011;53498;50.422;14.912;2022-11-11T14:26:59;27.95;;;15.35;;
66626;SDS011;53498;50.422;14.912;2022-11-11T14:29:46;32.75;;;17.38;;
66626;SDS011;53498;50.422;14.912;2022-11-11T14:39:53;29.95;;;16.67;;
66626;SDS011;53498;50.422;14.912;2022-11-11T14:44:58;30.30;;;17.00;;
66626;SDS011;53498;50.422;14.912;2022-11-11T14:49:58;30.35;;;18.00;;
66626;SDS011;53498;50.422;14.912;2022-11-11T14:57:48;42.53;;;20.88;;
66626;SDS011;53498;50.422;14.912;2022-11-11T15:00:32;38.80;;;18.83;;
66626;SDS011;53498;50.422;14.912;2022-11-11T15:03:19;39.22;;;19.08;;
66626;SDS011;53498;50.422;14.912;2022-11-11T15:11:40;38.28;;;20.00;;
66626;SDS011;53498;50.422;14.912;2022-11-11T15:14:47;37.22;;;21.50;;
66626;SDS011;53498;50.422;14.912;2022-11-11T15:17:34;34.67;;;18.10;;
66626;SDS011;53498;50.422;14.912;2022-11-11T15:23:32;33.30;;;16.25;;
66626;SDS011;53498;50.422;14.912;2022-11-11T15:26:05;35.13;;;16.92;;
66626;SDS011;53498;50.422;14.912;2022-11-11T15:31:17;34.70;;;19.58;;
66626;SDS011;53498;50.422;14.912;2022-11-11T15:34:09;33.00;;;17.63;;
66626;SDS011;53498;50.422;14.912;2022-11-11T15:39:18;39.30;;;19.05;;
66626;SDS011;53498;50.422;14.912;2022-11-11T15:41:49;40.63;;;18.63;;
66626;SDS011;53498;50.422;14.912;2022-11-11T15:44:28;38.95;;;20.88;;
66626;SDS011;53498;50.422;14.912;2022-11-11T15:46:57;36.50;;;18.65;;
66626;SDS011;53498;50.422;14.912;2022-11-11T15:52:53;36.58;;;18.77;;
66626;SDS011;53498;50.422;14.912;2022-11-11T15:55:20;40.78;;;21.50;;
66626;SDS011;53498;50.422;14.912;2022-11-11T15:57:50;35.15;;;19.52;;
66626;SDS011;53498;50.422;14.912;2022-11-11T16:02:47;42.72;;;21.13;;
66626;SDS011;53498;50.422;14.912;2022-11-11T16:05:20;38.17;;;20.80;;
66626;SDS011;53498;50.422;14.912;2022-11-11T16:07:48;42.72;;;22.50;;
66626;SDS011;53498;50.422;14.912;2022-11-11T16:10:26;37.60;;;19.75;;
66626;SDS011;53498;50.422;14.912;2022-11-11T16:18:28;39.88;;;22.70;;
66626;SDS011;53498;50.422;14.912;2022-11-11T16:21:18;39.15;;;21.55;;
66626;SDS011;53498;50.422;14.912;2022-11-11T16:23:58;36.10;;;18.25;;
66626;SDS011;53498;50.422;14.912;2022-11-11T16:26:26;38.80;;;21.05;;
66626;SDS011;53498;50.422;14.912;2022-11-11T16:28:56;36.95;;;18.45;;
66626;SDS011;53498;50.422;14.912;2022-11-11T16:31:36;41.30;;;22.77;;
66626;SDS011;53498;50.422;14.912;2022-11-11T16:34:22;43.95;;;22.33;;
66626;SDS011;53498;50.422;14.912;2022-11-11T16:37:00;37.97;;;19.55;;
66626;SDS011;53498;50.422;14.912;2022-11-11T16:39:28;42.83;;;23.43;;
66626;SDS011;53498;50.422;14.912;2022-11-11T16:41:54;37.97;;;21.55;;
66626;SDS011;53498;50.422;14.912;2022-11-11T16:44:28;48.15;;;23.35;;
66626;SDS011;53498;50.422;14.912;2022-11-11T16:52:37;42.13;;;23.17;;
66626;SDS011;53498;50.422;14.912;2022-11-11T16:55:07;41.65;;;23.30;;
66626;SDS011;53498;50.422;14.912;2022-11-11T16:57:35;42.38;;;22.45;;
66626;SDS011;53498;50.422;14.912;2022-11-11T17:00:10;43.30;;;21.52;;
66626;SDS011;53498;50.422;14.912;2022-11-11T17:02:39;45.75;;;21.77;;
66626;SDS011;53498;50.422;14.912;2022-11-11T17:05:05;44.65;;;21.98;;
66626;SDS011;53498;50.422;14.912;2022-11-11T17:07:38;43.15;;;21.25;;
66626;SDS011;53498;50.422;14.912;2022-11-11T17:12:44;49.38;;;21.50;;
66626;SDS011;53498;50.422;14.912;2022-11-11T17:15:12;52.83;;;23.27;;